CYAM

Sault Ste Marie Airport

Sault Ste Marie, , Canada
METAR CYAM 261300Z 07006KT 5SM BR VCFG FEW044 SCT100 BKN130 18/16 A2976 RMK CU2ACC1AC3 VCFG S VIS S 3 SLP080 DENSITY ALT 1300FT
Observed Flight Rules
May-26 @ 13:00 UTC (46 minutes ago) Marginal Visual Flight Rules
Wind Visibility Clouds Conditions
70° at 6 knots 5 miles
  • Few at 4,400' AGL
  • Scattered at 10,000' AGL
  • Broken at 13,000' AGL
  • Mist
  • Area Fog
Temperatures Readings
Current 18°C / 64°F
Dewpoint 16°C / 61°F
Humidity 88%
Altimeter 29.76" Hg
Pressure 1008 hPa
Elevation 192
METAR CYAM 261300Z 07006KT 5SM BR VCFG FEW044 SCT100 BKN130 18/16 A2976 RMK CU2ACC1AC3 VCFG S VIS S 3 SLP080 DENSITY ALT 1300FT
Observed Flight Rules
May-26 @ 13:00 UTC
(46 minutes ago)
MVFR
Wind Visibility
70° at 6 knots 5 miles
Clouds
  • Few at 4,400' AGL
  • Scattered at 10,000' AGL
  • Broken at 13,000' AGL
Conditions
  • Mist
  • Area Fog
Temperature Dewpoint
18°C / 64°F 16°C / 61°F
Humidity Altimeter Pressure
88% 29.76" Hg 1008 hPa